Time;durP1;ratioP1;P1;durP2;ratioP2;P2;SDS_P1;SDS_P2;PMS_P1;PMS_P2;Temp;Humidity;BMP_temperature;BMP_pressure;BME280_temperature;BME280_humidity;BME280_pressure;Samples;Min_cycle;Max_cycle;Signal;HPM_P1;HPM_P2
2021/04/13 14:32:01;;;;;;;;;;;;;;;;;;5068514;28;20024;-53
2021/04/13 14:34:27;;;;;;;;;;;;;;;;;;5070061;28;19959;-46
2021/04/13 14:40:57;;;;;;;;;;;;;;;;;;5090199;28;20729;-51
2021/04/13 14:43:23;;;;;;;;;;;;;;;;;;5088979;28;19915;-53
2021/04/13 15:04:13;;;;;;;4.07;1.03;;;;;;;;;;4928847;27;823060;-40
2021/04/13 15:06:39;;;;;;;4.43;1.58;;;;;;;;;;4908882;28;228879;-40
2021/04/13 15:09:05;;;;;;;5.57;1.90;;;;;;;;;;4920494;27;228871;-39
2021/04/13 15:11:31;;;;;;;7.50;1.85;;;;;;;;;;4899228;28;229870;-40
2021/04/13 15:13:57;;;;;;;6.60;2.28;;;;;;;;;;4901200;28;229165;-40
2021/04/13 15:16:23;;;;;;;5.30;1.70;;;;;;;;;;4902562;28;230719;-41
2021/04/13 15:18:50;;;;;;;6.80;1.90;;;;;;;;;;4903313;28;228840;-36
2021/04/13 15:21:17;;;;;;;7.03;1.98;;;;;;;;;;4898356;28;229140;-34
2021/04/13 15:23:43;;;;;;;6.28;1.85;;;;;;;;;;4900023;28;228872;-33
2021/04/13 15:26:10;;;;;;;7.10;1.88;;;;;;;;;;4904202;28;228995;-32
2021/04/13 15:28:36;;;;;;;5.93;1.85;;;;;;;;;;4926649;27;230631;-35
2021/04/13 15:31:02;;;;;;;5.68;1.63;;;;;;;;;;4920086;27;229595;-34
2021/04/13 15:33:29;;;;;;;7.07;1.75;;;;;;;;;;4910337;28;231833;-34
2021/04/13 15:35:54;;;;;;;5.43;1.60;;;;;;;;;;4893656;28;228947;-32
2021/04/13 15:38:20;;;;;;;5.57;1.55;;;;;;;;;;4917855;28;228872;-34
2021/04/13 15:40:47;;;;;;;8.27;2.03;;;;;;;;;;4882548;28;232011;-36
2021/04/13 15:43:20;;;;;;;5.55;1.85;;;;;;;;;;4912029;28;228739;-34
2021/04/13 15:45:50;;;;;;;6.15;1.60;;;;;;;;;;4911575;28;229023;-37
2021/04/13 15:48:46;;;;;;;7.97;1.85;;;;;;;;;;4888661;28;229491;-36
2021/04/13 15:51:13;;;;;;;8.43;1.95;;;;;;;;;;4892182;28;228999;-34
2021/04/13 15:53:38;;;;;;;7.13;1.70;;;;;;;;;;4907475;28;228420;-35
2021/04/13 15:56:05;;;;;;;10.80;1.70;;;;;;;;;;4898264;28;228886;-40
2021/04/13 15:58:31;;;;;;;11.07;1.80;;;;;;;;;;4922151;28;228715;-40
2021/04/13 16:00:57;;;;;;;8.15;1.85;;;;;;;;;;4902001;28;228899;-40
2021/04/13 16:03:25;;;;;;;6.55;1.42;;;;;;;;;;4902082;28;229656;-36
2021/04/13 16:05:51;;;;;;;7.32;1.80;;;;;;;;;;4922106;28;229014;-38
2021/04/13 16:08:17;;;;;;;9.77;1.58;;;;;;;;;;4922410;28;228816;-35
2021/04/13 16:10:42;;;;;;;4.95;1.45;;;;;;;;;;4920212;28;228773;-35
2021/04/13 16:13:08;;;;;;;7.10;1.75;;;;;;;;;;4919349;28;228726;-36
2021/04/13 16:15:34;;;;;;;;;;;;;;;;;;4892053;28;229020;-34
2021/04/13 16:18:00;;;;;;;5.03;1.42;;;;;;;;;;4911906;28;228712;-34
2021/04/13 16:20:26;;;;;;;5.20;1.70;;;;;;;;;;4907675;28;229023;-34
2021/04/13 16:22:52;;;;;;;4.43;1.20;;;;;;;;;;4906253;28;229200;-38
2021/04/13 16:25:19;;;;;;;3.97;1.60;;;;;;;;;;4908818;28;228714;-36
2021/04/13 16:27:45;;;;;;;3.53;1.10;;;;;;;;;;4933092;22;228368;-26
2021/04/13 16:30:11;;;;;;;4.90;1.48;;;;;;;;;;4928285;28;229637;-29
2021/04/13 16:32:38;;;;;;;3.83;1.40;;;;;;;;;;4911313;27;228338;-24
2021/04/13 16:35:05;;;;;;;4.45;1.40;;;;;;;;;;4914730;28;228785;-28
2021/04/13 16:37:31;;;;;;;4.00;1.40;;;;;;;;;;4895581;28;229267;-28
2021/04/13 16:40:16;;;;;;;2.95;1.30;;;;;;;;;;4911877;28;228469;-25
2021/04/13 16:42:46;;;;;;;3.85;1.70;;;;;;;;;;4893822;28;230894;-29
2021/04/13 16:45:12;;;;;;;3.35;1.40;;;;;;;;;;4894848;28;229082;-28
2021/04/13 16:47:38;;;;;;;4.20;1.48;;;;;;;;;;4913024;28;228712;-27
2021/04/13 16:50:04;;;;;;;5.15;1.48;;;;;;;;;;4892651;28;229728;-29
2021/04/13 16:52:31;;;;;;;4.97;1.50;;;;;;;;;;4908800;28;228787;-27
2021/04/13 16:54:57;;;;;;;4.50;1.10;;;;;;;;;;4877554;28;228919;-28
2021/04/13 16:57:22;;;;;;;3.10;1.40;;;;;;;;;;4913251;28;228912;-28
2021/04/13 16:59:48;;;;;;;4.45;1.35;;;;;;;;;;4875996;28;230175;-28
2021/04/13 17:02:18;;;;;;;5.97;1.25;;;;;;;;;;4892162;28;228949;-28
2021/04/13 17:04:49;;;;;;;7.38;1.55;;;;;;;;;;4901703;28;228672;-29
2021/04/13 17:07:27;;;;;;;4.88;1.35;;;;;;;;;;4890124;28;230457;-29
2021/04/13 17:09:54;;;;;;;4.40;1.33;;;;;;;;;;4899826;28;230721;-28
2021/04/13 17:12:23;;;;;;;5.90;1.20;;;;;;;;;;4875132;28;231007;-30
2021/04/13 17:15:08;;;;;;;6.25;1.70;;;;;;;;;;4892392;28;229629;-27
2021/04/13 17:17:36;;;;;;;6.63;1.50;;;;;;;;;;4890403;28;230991;-28
2021/04/13 17:20:02;;;;;;;8.90;1.83;;;;;;;;;;4875802;28;228936;-29
2021/04/13 17:22:29;;;;;;;3.70;1.20;;;;;;;;;;4888542;28;229318;-28
2021/04/13 17:25:05;;;;;;;4.30;1.38;;;;;;;;;;4892174;28;228735;-28
2021/04/13 17:27:35;;;;;;;2.80;1.17;;;;;;;;;;4890091;28;229117;-28
2021/04/13 17:30:01;;;;;;;4.25;1.30;;;;;;;;;;4888749;28;228898;-28
2021/04/13 17:32:30;;;;;;;9.18;1.60;;;;;;;;;;4907663;28;228687;-28
2021/04/13 17:34:56;;;;;;;7.68;1.90;;;;;;;;;;4921408;28;229192;-28
2021/04/13 17:37:26;;;;;;;3.47;1.20;;;;;;;;;;4909150;28;229140;-29
2021/04/13 17:39:51;;;;;;;4.60;1.70;;;;;;;;;;4909077;28;229077;-29
2021/04/13 17:42:24;;;;;;;6.20;1.88;;;;;;;;;;4907152;28;228399;-28
2021/04/13 17:44:54;;;;;;;8.45;1.95;;;;;;;;;;4878015;28;228930;-26
2021/04/13 17:47:26;;;;;;;5.22;1.77;;;;;;;;;;4893174;28;228982;-29
2021/04/13 17:49:52;;;;;;;3.85;1.40;;;;;;;;;;4892619;28;229880;-29
2021/04/13 17:52:18;;;;;;;5.85;1.75;;;;;;;;;;4886101;28;230436;-34
